sensor_id;sensor_type;location;lat;lon;timestamp;temperature;humidity
73133;DHT22;61320;52.008;4.530;2023-08-17T00:00:24;19.98;70.86
73133;DHT22;61320;52.008;4.530;2023-08-17T00:02:49;19.95;70.55
73133;DHT22;61320;52.008;4.530;2023-08-17T00:05:15;19.94;70.59
73133;DHT22;61320;52.008;4.530;2023-08-17T00:07:40;19.91;70.72
73133;DHT22;61320;52.008;4.530;2023-08-17T00:10:06;19.92;70.66
73133;DHT22;61320;52.008;4.530;2023-08-17T00:12:31;19.91;70.59
73133;DHT22;61320;52.008;4.530;2023-08-17T00:14:57;19.85;70.61
73133;DHT22;61320;52.008;4.530;2023-08-17T00:17:22;19.87;70.39
73133;DHT22;61320;52.008;4.530;2023-08-17T00:19:48;19.84;70.68
73133;DHT22;61320;52.008;4.530;2023-08-17T00:22:13;19.81;70.65
73133;DHT22;61320;52.008;4.530;2023-08-17T00:24:39;19.78;71.16
73133;DHT22;61320;52.008;4.530;2023-08-17T00:27:07;19.75;71.15
73133;DHT22;61320;52.008;4.530;2023-08-17T00:29:32;19.77;71.16
73133;DHT22;61320;52.008;4.530;2023-08-17T00:32:00;19.74;71.37
73133;DHT22;61320;52.008;4.530;2023-08-17T00:34:27;19.71;71.36
73133;DHT22;61320;52.008;4.530;2023-08-17T00:36:52;19.74;71.43
73133;DHT22;61320;52.008;4.530;2023-08-17T00:39:18;19.68;71.55
73133;DHT22;61320;52.008;4.530;2023-08-17T00:41:44;19.67;71.60
73133;DHT22;61320;52.008;4.530;2023-08-17T00:44:09;19.70;71.60
73133;DHT22;61320;52.008;4.530;2023-08-17T00:46:36;19.66;71.63
73133;DHT22;61320;52.008;4.530;2023-08-17T00:49:03;19.67;71.34
73133;DHT22;61320;52.008;4.530;2023-08-17T00:51:28;19.66;71.54
73133;DHT22;61320;52.008;4.530;2023-08-17T00:53:58;19.64;71.50
73133;DHT22;61320;52.008;4.530;2023-08-17T00:56:28;19.63;71.49
73133;DHT22;61320;52.008;4.530;2023-08-17T00:58:55;19.63;71.44
73133;DHT22;61320;52.008;4.530;2023-08-17T01:01:21;19.58;71.49
73133;DHT22;61320;52.008;4.530;2023-08-17T01:03:46;19.58;71.43
73133;DHT22;61320;52.008;4.530;2023-08-17T01:06:12;19.57;71.33
73133;DHT22;61320;52.008;4.530;2023-08-17T01:08:38;19.57;71.15
73133;DHT22;61320;52.008;4.530;2023-08-17T01:14:09;19.51;70.79
73133;DHT22;61320;52.008;4.530;2023-08-17T01:16:48;19.50;70.68
73133;DHT22;61320;52.008;4.530;2023-08-17T01:19:25;19.46;70.96
73133;DHT22;61320;52.008;4.530;2023-08-17T01:21:57;19.47;70.56
73133;DHT22;61320;52.008;4.530;2023-08-17T01:24:25;19.45;70.53
73133;DHT22;61320;52.008;4.530;2023-08-17T01:26:52;19.47;70.08
73133;DHT22;61320;52.008;4.530;2023-08-17T01:29:18;19.45;70.16
73133;DHT22;61320;52.008;4.530;2023-08-17T01:32:06;19.45;70.53
73133;DHT22;61320;52.008;4.530;2023-08-17T01:34:40;19.41;70.60
73133;DHT22;61320;52.008;4.530;2023-08-17T01:37:11;19.40;70.31
73133;DHT22;61320;52.008;4.530;2023-08-17T01:39:43;19.36;70.52
73133;DHT22;61320;52.008;4.530;2023-08-17T01:42:12;19.34;69.82
73133;DHT22;61320;52.008;4.530;2023-08-17T01:44:39;19.31;70.08
73133;DHT22;61320;52.008;4.530;2023-08-17T01:47:05;19.30;70.14
73133;DHT22;61320;52.008;4.530;2023-08-17T01:49:31;19.26;70.21
73133;DHT22;61320;52.008;4.530;2023-08-17T01:51:56;19.26;70.54
73133;DHT22;61320;52.008;4.530;2023-08-17T01:54:22;19.24;69.92
73133;DHT22;61320;52.008;4.530;2023-08-17T01:56:48;19.23;70.15
73133;DHT22;61320;52.008;4.530;2023-08-17T01:59:14;19.19;70.33
73133;DHT22;61320;52.008;4.530;2023-08-17T02:01:39;19.16;70.46
73133;DHT22;61320;52.008;4.530;2023-08-17T02:04:05;19.16;70.14
73133;DHT22;61320;52.008;4.530;2023-08-17T02:06:30;19.15;70.32
73133;DHT22;61320;52.008;4.530;2023-08-17T02:08:58;19.13;70.24
73133;DHT22;61320;52.008;4.530;2023-08-17T02:11:23;19.10;70.34
73133;DHT22;61320;52.008;4.530;2023-08-17T02:13:49;19.05;70.35
73133;DHT22;61320;52.008;4.530;2023-08-17T02:16:14;19.03;70.17
73133;DHT22;61320;52.008;4.530;2023-08-17T02:18:40;19.05;70.00
73133;DHT22;61320;52.008;4.530;2023-08-17T02:21:06;18.98;70.36
73133;DHT22;61320;52.008;4.530;2023-08-17T02:23:31;18.94;70.41
73133;DHT22;61320;52.008;4.530;2023-08-17T02:25:57;18.92;70.44
73133;DHT22;61320;52.008;4.530;2023-08-17T02:28:22;18.87;70.66
73133;DHT22;61320;52.008;4.530;2023-08-17T02:30:48;18.87;70.70
73133;DHT22;61320;52.008;4.530;2023-08-17T02:33:17;18.84;70.72
73133;DHT22;61320;52.008;4.530;2023-08-17T02:35:42;18.84;70.48
73133;DHT22;61320;52.008;4.530;2023-08-17T02:38:07;18.81;70.46
73133;DHT22;61320;52.008;4.530;2023-08-17T02:40:33;18.75;70.50
73133;DHT22;61320;52.008;4.530;2023-08-17T02:42:58;18.69;70.72
73133;DHT22;61320;52.008;4.530;2023-08-17T02:45:24;18.69;70.44
73133;DHT22;61320;52.008;4.530;2023-08-17T02:47:49;18.68;70.75
73133;DHT22;61320;52.008;4.530;2023-08-17T02:50:15;18.62;70.78
73133;DHT22;61320;52.008;4.530;2023-08-17T02:52:40;18.57;70.89
73133;DHT22;61320;52.008;4.530;2023-08-17T02:55:06;18.59;71.22
73133;DHT22;61320;52.008;4.530;2023-08-17T02:57:32;18.57;70.99
73133;DHT22;61320;52.008;4.530;2023-08-17T02:59:57;18.58;71.26
73133;DHT22;61320;52.008;4.530;2023-08-17T03:02:22;18.58;71.24
73133;DHT22;61320;52.008;4.530;2023-08-17T03:04:48;18.61;71.44
73133;DHT22;61320;52.008;4.530;2023-08-17T03:07:13;18.58;71.15
73133;DHT22;61320;52.008;4.530;2023-08-17T03:09:39;18.57;71.54
73133;DHT22;61320;52.008;4.530;2023-08-17T03:12:04;18.55;71.53
73133;DHT22;61320;52.008;4.530;2023-08-17T03:14:30;18.58;71.93
73133;DHT22;61320;52.008;4.530;2023-08-17T03:16:55;18.57;72.02
73133;DHT22;61320;52.008;4.530;2023-08-17T03:19:21;18.61;71.92
73133;DHT22;61320;52.008;4.530;2023-08-17T03:21:46;18.62;72.04
73133;DHT22;61320;52.008;4.530;2023-08-17T03:24:12;18.62;71.98
73133;DHT22;61320;52.008;4.530;2023-08-17T03:26:37;18.65;72.33
73133;DHT22;61320;52.008;4.530;2023-08-17T03:29:03;18.67;72.03
73133;DHT22;61320;52.008;4.530;2023-08-17T03:31:28;18.67;72.02
73133;DHT22;61320;52.008;4.530;2023-08-17T03:33:54;18.64;72.17
73133;DHT22;61320;52.008;4.530;2023-08-17T03:36:21;18.67;72.04
73133;DHT22;61320;52.008;4.530;2023-08-17T03:38:46;18.62;72.35
73133;DHT22;61320;52.008;4.530;2023-08-17T03:41:12;18.61;72.35
73133;DHT22;61320;52.008;4.530;2023-08-17T03:43:37;18.61;72.26
73133;DHT22;61320;52.008;4.530;2023-08-17T03:46:04;18.58;72.52
73133;DHT22;61320;52.008;4.530;2023-08-17T03:48:29;18.59;72.59
73133;DHT22;61320;52.008;4.530;2023-08-17T03:50:55;18.61;72.63
73133;DHT22;61320;52.008;4.530;2023-08-17T03:53:21;18.58;72.74
73133;DHT22;61320;52.008;4.530;2023-08-17T03:55:50;18.57;72.70
73133;DHT22;61320;52.008;4.530;2023-08-17T03:58:17;18.55;72.78
73133;DHT22;61320;52.008;4.530;2023-08-17T04:00:49;18.55;72.91
73133;DHT22;61320;52.008;4.530;2023-08-17T04:03:14;18.58;72.90
73133;DHT22;61320;52.008;4.530;2023-08-17T04:05:40;18.55;73.09
73133;DHT22;61320;52.008;4.530;2023-08-17T04:08:05;18.54;73.03
73133;DHT22;61320;52.008;4.530;2023-08-17T04:10:30;18.55;72.87
73133;DHT22;61320;52.008;4.530;2023-08-17T04:12:56;18.52;73.21
73133;DHT22;61320;52.008;4.530;2023-08-17T04:15:22;18.55;73.26
73133;DHT22;61320;52.008;4.530;2023-08-17T04:17:48;18.59;72.71
73133;DHT22;61320;52.008;4.530;2023-08-17T04:20:13;18.57;73.02
73133;DHT22;61320;52.008;4.530;2023-08-17T04:22:39;18.57;72.83
73133;DHT22;61320;52.008;4.530;2023-08-17T04:25:04;18.55;72.96
73133;DHT22;61320;52.008;4.530;2023-08-17T04:27:30;18.58;72.88
73133;DHT22;61320;52.008;4.530;2023-08-17T04:29:56;18.59;72.81
73133;DHT22;61320;52.008;4.530;2023-08-17T04:32:22;18.61;73.05
73133;DHT22;61320;52.008;4.530;2023-08-17T04:34:47;18.59;73.16
73133;DHT22;61320;52.008;4.530;2023-08-17T04:37:14;18.62;72.98
73133;DHT22;61320;52.008;4.530;2023-08-17T04:39:39;18.64;73.09
73133;DHT22;61320;52.008;4.530;2023-08-17T04:42:06;18.65;72.79
73133;DHT22;61320;52.008;4.530;2023-08-17T04:44:32;18.68;73.11
73133;DHT22;61320;52.008;4.530;2023-08-17T04:46:57;18.69;73.29
73133;DHT22;61320;52.008;4.530;2023-08-17T04:51:48;18.72;73.06
73133;DHT22;61320;52.008;4.530;2023-08-17T04:54:14;18.76;73.02
73133;DHT22;61320;52.008;4.530;2023-08-17T04:56:39;18.78;73.08
73133;DHT22;61320;52.008;4.530;2023-08-17T04:59:05;18.79;72.93
73133;DHT22;61320;52.008;4.530;2023-08-17T05:01:30;18.82;73.19
73133;DHT22;61320;52.008;4.530;2023-08-17T05:03:57;18.81;73.14
73133;DHT22;61320;52.008;4.530;2023-08-17T05:06:22;18.81;73.05
73133;DHT22;61320;52.008;4.530;2023-08-17T05:08:48;18.84;73.31
73133;DHT22;61320;52.008;4.530;2023-08-17T05:11:13;18.82;73.34
73133;DHT22;61320;52.008;4.530;2023-08-17T05:13:39;18.84;73.44
73133;DHT22;61320;52.008;4.530;2023-08-17T05:16:04;18.85;73.45
73133;DHT22;61320;52.008;4.530;2023-08-17T05:18:30;18.85;73.47
73133;DHT22;61320;52.008;4.530;2023-08-17T05:20:56;18.88;73.35
73133;DHT22;61320;52.008;4.530;2023-08-17T05:23:21;18.87;73.45
73133;DHT22;61320;52.008;4.530;2023-08-17T05:25:47;18.81;73.58
73133;DHT22;61320;52.008;4.530;2023-08-17T05:28:13;18.82;73.63
73133;DHT22;61320;52.008;4.530;2023-08-17T05:30:39;18.79;73.63
73133;DHT22;61320;52.008;4.530;2023-08-17T05:33:05;18.82;73.35
73133;DHT22;61320;52.008;4.530;2023-08-17T05:35:32;18.81;73.53
73133;DHT22;61320;52.008;4.530;2023-08-17T05:37:57;18.84;73.83
73133;DHT22;61320;52.008;4.530;2023-08-17T05:40:23;18.84;73.80
73133;DHT22;61320;52.008;4.530;2023-08-17T05:42:48;18.85;74.05
73133;DHT22;61320;52.008;4.530;2023-08-17T05:45:14;18.92;73.96
73133;DHT22;61320;52.008;4.530;2023-08-17T05:47:39;18.92;73.97
73133;DHT22;61320;52.008;4.530;2023-08-17T05:50:05;18.95;73.64
73133;DHT22;61320;52.008;4.530;2023-08-17T05:52:31;19.00;73.23
73133;DHT22;61320;52.008;4.530;2023-08-17T05:54:57;18.99;73.62
73133;DHT22;61320;52.008;4.530;2023-08-17T05:57:22;19.00;73.49
73133;DHT22;61320;52.008;4.530;2023-08-17T05:59:48;19.08;73.37
73133;DHT22;61320;52.008;4.530;2023-08-17T06:02:13;19.09;73.44
73133;DHT22;61320;52.008;4.530;2023-08-17T06:04:39;19.13;73.09
73133;DHT22;61320;52.008;4.530;2023-08-17T06:07:04;19.16;73.15
73133;DHT22;61320;52.008;4.530;2023-08-17T06:09:31;19.19;73.35
73133;DHT22;61320;52.008;4.530;2023-08-17T06:11:56;19.17;73.16
73133;DHT22;61320;52.008;4.530;2023-08-17T06:14:22;19.24;73.04
73133;DHT22;61320;52.008;4.530;2023-08-17T06:16:47;19.29;73.25
73133;DHT22;61320;52.008;4.530;2023-08-17T06:19:13;19.31;73.00
73133;DHT22;61320;52.008;4.530;2023-08-17T06:21:38;19.30;73.35
73133;DHT22;61320;52.008;4.530;2023-08-17T06:24:04;19.37;72.96
73133;DHT22;61320;52.008;4.530;2023-08-17T06:26:30;19.41;72.57
73133;DHT22;61320;52.008;4.530;2023-08-17T06:28:55;19.43;72.99
73133;DHT22;61320;52.008;4.530;2023-08-17T06:31:22;19.46;73.04
73133;DHT22;61320;52.008;4.530;2023-08-17T06:33:50;19.49;73.01
73133;DHT22;61320;52.008;4.530;2023-08-17T06:36:15;19.51;73.19
73133;DHT22;61320;52.008;4.530;2023-08-17T06:38:42;19.54;72.57
73133;DHT22;61320;52.008;4.530;2023-08-17T06:41:07;19.58;72.87
73133;DHT22;61320;52.008;4.530;2023-08-17T06:43:33;19.63;72.74
73133;DHT22;61320;52.008;4.530;2023-08-17T06:45:58;19.66;72.46
73133;DHT22;61320;52.008;4.530;2023-08-17T06:48:25;19.66;72.87
73133;DHT22;61320;52.008;4.530;2023-08-17T06:50:51;19.70;72.99
73133;DHT22;61320;52.008;4.530;2023-08-17T06:53:16;19.73;73.13
73133;DHT22;61320;52.008;4.530;2023-08-17T06:55:42;19.74;72.86
73133;DHT22;61320;52.008;4.530;2023-08-17T06:58:07;19.73;72.82
73133;DHT22;61320;52.008;4.530;2023-08-17T07:00:33;19.78;72.99
73133;DHT22;61320;52.008;4.530;2023-08-17T07:03:01;19.85;72.79
73133;DHT22;61320;52.008;4.530;2023-08-17T07:05:27;19.89;72.56
73133;DHT22;61320;52.008;4.530;2023-08-17T07:07:52;19.94;72.53
73133;DHT22;61320;52.008;4.530;2023-08-17T07:10:18;20.02;72.60
73133;DHT22;61320;52.008;4.530;2023-08-17T07:12:44;20.08;73.05
73133;DHT22;61320;52.008;4.530;2023-08-17T07:15:10;20.12;72.29
73133;DHT22;61320;52.008;4.530;2023-08-17T07:17:36;20.15;72.23
73133;DHT22;61320;52.008;4.530;2023-08-17T07:20:05;20.19;72.13
73133;DHT22;61320;52.008;4.530;2023-08-17T07:22:34;20.22;72.09
73133;DHT22;61320;52.008;4.530;2023-08-17T07:29:51;20.35;72.02
73133;DHT22;61320;52.008;4.530;2023-08-17T07:32:16;20.39;72.28
73133;DHT22;61320;52.008;4.530;2023-08-17T07:34:42;20.43;72.34
73133;DHT22;61320;52.008;4.530;2023-08-17T07:37:07;20.49;72.58
73133;DHT22;61320;52.008;4.530;2023-08-17T07:39:33;20.57;71.88
73133;DHT22;61320;52.008;4.530;2023-08-17T07:41:59;20.62;71.48
73133;DHT22;61320;52.008;4.530;2023-08-17T07:44:24;20.66;71.21
73133;DHT22;61320;52.008;4.530;2023-08-17T07:46:50;20.64;71.51
73133;DHT22;61320;52.008;4.530;2023-08-17T07:49:15;20.69;71.04
73133;DHT22;61320;52.008;4.530;2023-08-17T07:51:40;20.70;70.62
73133;DHT22;61320;52.008;4.530;2023-08-17T07:54:07;20.70;70.66
73133;DHT22;61320;52.008;4.530;2023-08-17T07:56:32;20.74;71.10
73133;DHT22;61320;52.008;4.530;2023-08-17T07:58:58;20.74;71.17
73133;DHT22;61320;52.008;4.530;2023-08-17T08:01:23;20.80;70.21
73133;DHT22;61320;52.008;4.530;2023-08-17T08:03:48;20.79;70.68
73133;DHT22;61320;52.008;4.530;2023-08-17T08:06:14;20.84;69.80
73133;DHT22;61320;52.008;4.530;2023-08-17T08:08:40;20.85;70.24
73133;DHT22;61320;52.008;4.530;2023-08-17T08:11:06;20.85;69.96
73133;DHT22;61320;52.008;4.530;2023-08-17T08:13:31;20.94;69.83
73133;DHT22;61320;52.008;4.530;2023-08-17T08:15:58;20.93;69.91
73133;DHT22;61320;52.008;4.530;2023-08-17T08:18:24;20.93;70.11
73133;DHT22;61320;52.008;4.530;2023-08-17T08:20:50;21.03;70.25
73133;DHT22;61320;52.008;4.530;2023-08-17T08:23:15;21.08;70.64
73133;DHT22;61320;52.008;4.530;2023-08-17T08:25:41;21.14;69.90
73133;DHT22;61320;52.008;4.530;2023-08-17T08:28:06;21.17;70.05
73133;DHT22;61320;52.008;4.530;2023-08-17T08:30:32;21.18;70.02
73133;DHT22;61320;52.008;4.530;2023-08-17T08:32:57;21.25;69.79
73133;DHT22;61320;52.008;4.530;2023-08-17T08:35:24;21.30;69.85
73133;DHT22;61320;52.008;4.530;2023-08-17T08:37:50;21.34;69.95
73133;DHT22;61320;52.008;4.530;2023-08-17T08:40:17;21.37;69.27
73133;DHT22;61320;52.008;4.530;2023-08-17T08:42:43;21.41;68.51
73133;DHT22;61320;52.008;4.530;2023-08-17T08:45:10;21.42;69.35
73133;DHT22;61320;52.008;4.530;2023-08-17T08:47:41;21.45;69.71
73133;DHT22;61320;52.008;4.530;2023-08-17T08:50:16;21.49;69.26
73133;DHT22;61320;52.008;4.530;2023-08-17T08:52:49;21.56;69.51
73133;DHT22;61320;52.008;4.530;2023-08-17T08:55:18;21.65;69.02
73133;DHT22;61320;52.008;4.530;2023-08-17T08:57:46;21.67;69.26
73133;DHT22;61320;52.008;4.530;2023-08-17T09:00:12;21.76;69.38
73133;DHT22;61320;52.008;4.530;2023-08-17T09:02:38;21.80;69.20
73133;DHT22;61320;52.008;4.530;2023-08-17T09:05:06;21.85;69.16
73133;DHT22;61320;52.008;4.530;2023-08-17T09:07:32;21.94;68.54
73133;DHT22;61320;52.008;4.530;2023-08-17T09:09:58;22.01;68.80
73133;DHT22;61320;52.008;4.530;2023-08-17T09:12:25;22.11;68.94
73133;DHT22;61320;52.008;4.530;2023-08-17T09:14:50;22.11;68.41
73133;DHT22;61320;52.008;4.530;2023-08-17T09:17:27;22.14;68.17
73133;DHT22;61320;52.008;4.530;2023-08-17T09:19:53;22.20;67.54
73133;DHT22;61320;52.008;4.530;2023-08-17T09:22:42;22.23;67.55
73133;DHT22;61320;52.008;4.530;2023-08-17T09:25:11;22.29;67.87
73133;DHT22;61320;52.008;4.530;2023-08-17T09:27:38;22.34;68.93
73133;DHT22;61320;52.008;4.530;2023-08-17T09:30:04;22.41;67.45
73133;DHT22;61320;52.008;4.530;2023-08-17T09:32:31;22.47;66.93
73133;DHT22;61320;52.008;4.530;2023-08-17T09:35:00;22.52;66.92
73133;DHT22;61320;52.008;4.530;2023-08-17T09:37:27;22.60;67.20
73133;DHT22;61320;52.008;4.530;2023-08-17T09:44:44;22.75;67.16
73133;DHT22;61320;52.008;4.530;2023-08-17T09:47:10;22.89;66.28
73133;DHT22;61320;52.008;4.530;2023-08-17T09:49:35;22.99;66.08
73133;DHT22;61320;52.008;4.530;2023-08-17T09:52:01;23.03;65.64
73133;DHT22;61320;52.008;4.530;2023-08-17T09:54:31;23.05;65.71
73133;DHT22;61320;52.008;4.530;2023-08-17T09:57:00;23.16;65.55
73133;DHT22;61320;52.008;4.530;2023-08-17T09:59:26;23.23;65.39
73133;DHT22;61320;52.008;4.530;2023-08-17T10:01:52;23.33;65.31
73133;DHT22;61320;52.008;4.530;2023-08-17T10:04:21;23.42;64.06
73133;DHT22;61320;52.008;4.530;2023-08-17T10:07:00;23.47;65.59
73133;DHT22;61320;52.008;4.530;2023-08-17T10:09:31;23.60;64.23
73133;DHT22;61320;52.008;4.530;2023-08-17T10:12:06;23.68;64.46
73133;DHT22;61320;52.008;4.530;2023-08-17T10:14:37;23.73;64.11
73133;DHT22;61320;52.008;4.530;2023-08-17T10:17:09;23.81;64.76
73133;DHT22;61320;52.008;4.530;2023-08-17T10:19:43;23.93;63.52
73133;DHT22;61320;52.008;4.530;2023-08-17T10:22:17;24.00;62.59
73133;DHT22;61320;52.008;4.530;2023-08-17T10:24:45;24.14;63.38
73133;DHT22;61320;52.008;4.530;2023-08-17T10:27:11;24.39;62.02
73133;DHT22;61320;52.008;4.530;2023-08-17T10:29:39;24.65;62.26
73133;DHT22;61320;52.008;4.530;2023-08-17T10:32:08;24.84;62.17
73133;DHT22;61320;52.008;4.530;2023-08-17T10:34:35;25.13;60.27
73133;DHT22;61320;52.008;4.530;2023-08-17T10:37:01;25.30;59.78
73133;DHT22;61320;52.008;4.530;2023-08-17T10:39:28;25.45;58.77
73133;DHT22;61320;52.008;4.530;2023-08-17T10:41:56;25.45;60.06
73133;DHT22;61320;52.008;4.530;2023-08-17T10:50:04;25.66;59.81
73133;DHT22;61320;52.008;4.530;2023-08-17T10:52:32;25.71;59.85
73133;DHT22;61320;52.008;4.530;2023-08-17T10:55:04;25.88;59.28
73133;DHT22;61320;52.008;4.530;2023-08-17T10:57:43;25.89;57.91
73133;DHT22;61320;52.008;4.530;2023-08-17T11:00:16;25.89;57.36
73133;DHT22;61320;52.008;4.530;2023-08-17T11:02:52;25.92;58.40
73133;DHT22;61320;52.008;4.530;2023-08-17T11:05:46;26.13;57.62
73133;DHT22;61320;52.008;4.530;2023-08-17T11:11:05;26.30;57.98
73133;DHT22;61320;52.008;4.530;2023-08-17T11:13:32;26.29;57.47
73133;DHT22;61320;52.008;4.530;2023-08-17T11:16:00;26.19;56.34
73133;DHT22;61320;52.008;4.530;2023-08-17T11:25:42;26.65;58.04
73133;DHT22;61320;52.008;4.530;2023-08-17T11:28:08;26.85;56.80
73133;DHT22;61320;52.008;4.530;2023-08-17T11:30:35;27.20;56.10
73133;DHT22;61320;52.008;4.530;2023-08-17T11:33:02;27.45;54.17
73133;DHT22;61320;52.008;4.530;2023-08-17T11:35:28;27.73;55.50
73133;DHT22;61320;52.008;4.530;2023-08-17T11:37:54;27.84;54.43
73133;DHT22;61320;52.008;4.530;2023-08-17T11:40:19;28.18;53.36
73133;DHT22;61320;52.008;4.530;2023-08-17T11:42:46;28.25;52.31
73133;DHT22;61320;52.008;4.530;2023-08-17T11:45:13;28.25;52.68
73133;DHT22;61320;52.008;4.530;2023-08-17T11:47:39;28.36;53.65
73133;DHT22;61320;52.008;4.530;2023-08-17T11:50:08;28.38;53.11
73133;DHT22;61320;52.008;4.530;2023-08-17T11:52:34;28.24;53.75
73133;DHT22;61320;52.008;4.530;2023-08-17T11:55:02;28.19;53.27
73133;DHT22;61320;52.008;4.530;2023-08-17T11:57:29;28.00;54.29
73133;DHT22;61320;52.008;4.530;2023-08-17T11:59:56;27.77;54.18
73133;DHT22;61320;52.008;4.530;2023-08-17T12:02:28;27.53;54.41
73133;DHT22;61320;52.008;4.530;2023-08-17T12:04:56;27.25;54.93
73133;DHT22;61320;52.008;4.530;2023-08-17T12:07:24;27.08;55.13
73133;DHT22;61320;52.008;4.530;2023-08-17T12:12:20;26.81;55.94
73133;DHT22;61320;52.008;4.530;2023-08-17T12:14:48;26.78;57.94
73133;DHT22;61320;52.008;4.530;2023-08-17T12:17:18;26.68;55.47
73133;DHT22;61320;52.008;4.530;2023-08-17T12:19:44;26.54;56.53
73133;DHT22;61320;52.008;4.530;2023-08-17T12:22:12;26.45;57.59
73133;DHT22;61320;52.008;4.530;2023-08-17T12:24:38;26.37;57.72
73133;DHT22;61320;52.008;4.530;2023-08-17T12:27:07;26.23;57.34
73133;DHT22;61320;52.008;4.530;2023-08-17T12:29:33;26.12;57.62
73133;DHT22;61320;52.008;4.530;2023-08-17T12:32:01;26.03;58.25
73133;DHT22;61320;52.008;4.530;2023-08-17T12:34:26;25.92;58.72
73133;DHT22;61320;52.008;4.530;2023-08-17T12:36:53;25.79;58.64
73133;DHT22;61320;52.008;4.530;2023-08-17T12:39:18;25.73;59.38
73133;DHT22;61320;52.008;4.530;2023-08-17T12:41:44;25.68;59.33
73133;DHT22;61320;52.008;4.530;2023-08-17T12:44:10;25.66;59.56
73133;DHT22;61320;52.008;4.530;2023-08-17T12:46:42;25.63;60.49
73133;DHT22;61320;52.008;4.530;2023-08-17T12:49:07;25.61;59.17
73133;DHT22;61320;52.008;4.530;2023-08-17T12:51:36;25.53;58.76
73133;DHT22;61320;52.008;4.530;2023-08-17T12:54:03;25.42;59.49
73133;DHT22;61320;52.008;4.530;2023-08-17T12:56:28;25.34;59.11
73133;DHT22;61320;52.008;4.530;2023-08-17T12:58:54;25.28;59.84
73133;DHT22;61320;52.008;4.530;2023-08-17T13:01:19;25.27;59.94
73133;DHT22;61320;52.008;4.530;2023-08-17T13:03:45;25.18;60.74
73133;DHT22;61320;52.008;4.530;2023-08-17T13:06:10;25.14;60.46
73133;DHT22;61320;52.008;4.530;2023-08-17T13:08:36;25.10;59.75
73133;DHT22;61320;52.008;4.530;2023-08-17T13:11:01;25.02;60.41
73133;DHT22;61320;52.008;4.530;2023-08-17T13:13:27;24.95;60.96
73133;DHT22;61320;52.008;4.530;2023-08-17T13:15:52;24.94;62.06
73133;DHT22;61320;52.008;4.530;2023-08-17T13:18:18;24.91;60.55
73133;DHT22;61320;52.008;4.530;2023-08-17T13:20:43;24.86;61.46
73133;DHT22;61320;52.008;4.530;2023-08-17T13:23:10;24.86;61.44
73133;DHT22;61320;52.008;4.530;2023-08-17T13:25:36;24.86;61.36
73133;DHT22;61320;52.008;4.530;2023-08-17T13:28:02;24.84;60.60
73133;DHT22;61320;52.008;4.530;2023-08-17T13:30:27;24.80;61.42
73133;DHT22;61320;52.008;4.530;2023-08-17T13:32:53;24.72;61.69
73133;DHT22;61320;52.008;4.530;2023-08-17T13:35:18;24.69;61.63
73133;DHT22;61320;52.008;4.530;2023-08-17T13:37:44;24.66;62.44
73133;DHT22;61320;52.008;4.530;2023-08-17T13:40:10;24.66;62.55
73133;DHT22;61320;52.008;4.530;2023-08-17T13:42:35;24.65;62.22
73133;DHT22;61320;52.008;4.530;2023-08-17T13:45:02;24.63;61.55
73133;DHT22;61320;52.008;4.530;2023-08-17T13:47:28;24.60;62.65
73133;DHT22;61320;52.008;4.530;2023-08-17T13:49:54;24.59;62.42
73133;DHT22;61320;52.008;4.530;2023-08-17T13:52:20;24.56;62.98
73133;DHT22;61320;52.008;4.530;2023-08-17T13:54:45;24.56;61.59
73133;DHT22;61320;52.008;4.530;2023-08-17T13:57:11;24.55;63.27
73133;DHT22;61320;52.008;4.530;2023-08-17T14:02:01;24.49;62.97
73133;DHT22;61320;52.008;4.530;2023-08-17T14:04:27;24.46;62.45
73133;DHT22;61320;52.008;4.530;2023-08-17T14:06:53;24.45;62.24
73133;DHT22;61320;52.008;4.530;2023-08-17T14:09:18;24.42;62.92
73133;DHT22;61320;52.008;4.530;2023-08-17T14:11:44;24.43;62.91
73133;DHT22;61320;52.008;4.530;2023-08-17T14:14:09;24.39;63.25
73133;DHT22;61320;52.008;4.530;2023-08-17T14:16:36;24.37;62.66
73133;DHT22;61320;52.008;4.530;2023-08-17T14:19:01;24.36;62.53
73133;DHT22;61320;52.008;4.530;2023-08-17T14:21:27;24.32;62.14
73133;DHT22;61320;52.008;4.530;2023-08-17T14:23:52;24.26;62.43
73133;DHT22;61320;52.008;4.530;2023-08-17T14:26:18;24.16;62.82
73133;DHT22;61320;52.008;4.530;2023-08-17T14:28:43;24.14;62.54
73133;DHT22;61320;52.008;4.530;2023-08-17T14:31:09;24.09;63.23
73133;DHT22;61320;52.008;4.530;2023-08-17T14:33:36;24.04;62.32
73133;DHT22;61320;52.008;4.530;2023-08-17T14:36:02;23.97;63.19
73133;DHT22;61320;52.008;4.530;2023-08-17T14:38:27;23.91;63.46
73133;DHT22;61320;52.008;4.530;2023-08-17T14:40:53;23.93;64.24
73133;DHT22;61320;52.008;4.530;2023-08-17T14:43:18;23.93;64.76
73133;DHT22;61320;52.008;4.530;2023-08-17T14:45:45;23.94;64.87
73133;DHT22;61320;52.008;4.530;2023-08-17T14:48:10;23.94;63.86
73133;DHT22;61320;52.008;4.530;2023-08-17T14:50:37;23.97;62.92
73133;DHT22;61320;52.008;4.530;2023-08-17T14:53:03;23.98;63.44
73133;DHT22;61320;52.008;4.530;2023-08-17T14:55:32;24.00;64.71
73133;DHT22;61320;52.008;4.530;2023-08-17T14:57:58;24.00;63.90
73133;DHT22;61320;52.008;4.530;2023-08-17T15:00:24;23.97;63.36
73133;DHT22;61320;52.008;4.530;2023-08-17T15:02:50;23.97;64.05
73133;DHT22;61320;52.008;4.530;2023-08-17T15:05:15;24.00;63.88
73133;DHT22;61320;52.008;4.530;2023-08-17T15:07:41;23.97;63.45
73133;DHT22;61320;52.008;4.530;2023-08-17T15:10:07;23.93;64.54
73133;DHT22;61320;52.008;4.530;2023-08-17T15:12:32;23.88;63.71
73133;DHT22;61320;52.008;4.530;2023-08-17T15:14:58;23.82;64.80
73133;DHT22;61320;52.008;4.530;2023-08-17T15:17:23;23.81;64.55
73133;DHT22;61320;52.008;4.530;2023-08-17T15:19:49;23.75;63.94
73133;DHT22;61320;52.008;4.530;2023-08-17T15:22:14;23.71;64.50
73133;DHT22;61320;52.008;4.530;2023-08-17T15:24:40;23.67;64.07
73133;DHT22;61320;52.008;4.530;2023-08-17T15:27:05;23.61;64.25
73133;DHT22;61320;52.008;4.530;2023-08-17T15:29:30;23.57;65.13
73133;DHT22;61320;52.008;4.530;2023-08-17T15:31:56;23.56;64.90
73133;DHT22;61320;52.008;4.530;2023-08-17T15:34:21;23.57;65.18
73133;DHT22;61320;52.008;4.530;2023-08-17T15:36:47;23.51;65.00
73133;DHT22;61320;52.008;4.530;2023-08-17T15:39:12;23.50;65.78
73133;DHT22;61320;52.008;4.530;2023-08-17T15:41:38;23.46;65.88
73133;DHT22;61320;52.008;4.530;2023-08-17T15:44:03;23.43;65.62
73133;DHT22;61320;52.008;4.530;2023-08-17T15:46:29;23.40;65.63
73133;DHT22;61320;52.008;4.530;2023-08-17T15:48:56;23.39;65.15
73133;DHT22;61320;52.008;4.530;2023-08-17T15:51:22;23.36;65.26
73133;DHT22;61320;52.008;4.530;2023-08-17T15:53:48;23.30;66.06
73133;DHT22;61320;52.008;4.530;2023-08-17T15:56:14;23.29;65.78
73133;DHT22;61320;52.008;4.530;2023-08-17T15:58:41;23.29;65.32
73133;DHT22;61320;52.008;4.530;2023-08-17T16:01:07;23.24;65.81